createdAt,value
2023-11-10T00:01:06.365Z,5.05
2023-11-10T00:06:23.083Z,4.15
2023-11-10T00:08:52.038Z,3.50
2023-11-10T00:11:20.184Z,3.72
2023-11-10T00:13:49.471Z,2.67
2023-11-10T00:16:19.827Z,5.05
2023-11-10T00:18:48.319Z,10.20
2023-11-10T00:21:23.256Z,4.18
2023-11-10T00:23:53.920Z,3.28
2023-11-10T00:26:23.161Z,3.92
2023-11-10T00:28:53.643Z,2.75
2023-11-10T00:31:21.658Z,2.25
2023-11-10T00:33:52.875Z,4.03
2023-11-10T00:36:22.919Z,3.78
2023-11-10T00:38:51.660Z,5.60
2023-11-10T00:41:20.816Z,5.45
2023-11-10T00:43:51.246Z,4.93
2023-11-10T00:46:19.974Z,5.43
2023-11-10T00:48:48.612Z,3.72
2023-11-10T00:51:16.758Z,4.80
2023-11-10T00:53:45.318Z,8.45
2023-11-10T00:56:13.317Z,3.75
2023-11-10T00:58:41.666Z,3.65
2023-11-10T01:01:09.676Z,5.40
2023-11-10T01:03:38.304Z,4.25
2023-11-10T01:06:06.916Z,5.80
2023-11-10T01:08:35.807Z,7.20
2023-11-10T01:11:04.103Z,4.65
2023-11-10T01:13:34.053Z,7.28
2023-11-10T01:16:03.170Z,4.07
2023-11-10T01:18:32.922Z,9.15
2023-11-10T01:21:01.546Z,8.90
2023-11-10T01:23:30.862Z,9.73
2023-11-10T01:25:58.998Z,11.77
2023-11-10T01:28:27.750Z,4.90
2023-11-10T01:30:56.242Z,9.05
2023-11-10T01:33:24.957Z,9.68
2023-11-10T01:35:53.640Z,9.43
2023-11-10T01:38:22.602Z,12.25
2023-11-10T01:40:51.901Z,8.70
2023-11-10T01:43:20.415Z,10.18
2023-11-10T01:45:48.521Z,10.20
2023-11-10T01:48:17.274Z,12.38
2023-11-10T01:50:45.943Z,9.40
2023-11-10T01:53:15.385Z,11.50
2023-11-10T01:55:48.760Z,6.75
2023-11-10T01:58:18.537Z,6.07
2023-11-10T02:00:47.150Z,5.40
2023-11-10T02:03:16.391Z,7.28
2023-11-10T02:05:44.610Z,6.13
2023-11-10T02:08:13.037Z,5.30
2023-11-10T02:10:41.167Z,5.05
2023-11-10T02:13:09.775Z,5.45
2023-11-10T02:15:37.875Z,5.78
2023-11-10T02:18:06.319Z,5.80
2023-11-10T02:20:34.435Z,4.07
2023-11-10T02:23:03.096Z,3.42
2023-11-10T02:25:31.388Z,6.35
2023-11-10T02:27:59.810Z,4.05
2023-11-10T02:30:28.010Z,4.20
2023-11-10T02:32:56.790Z,3.60
2023-11-10T02:35:24.952Z,3.45
2023-11-10T02:37:53.336Z,4.30
2023-11-10T02:40:21.397Z,6.00
2023-11-10T02:42:49.871Z,2.50
2023-11-10T02:45:18.103Z,3.50
2023-11-10T02:47:46.669Z,2.00
2023-11-10T02:50:14.846Z,2.55
2023-11-10T02:52:43.345Z,2.35
2023-11-10T02:55:11.534Z,3.13
2023-11-10T02:57:40.068Z,11.43
2023-11-10T03:00:11.243Z,4.63
2023-11-10T03:02:39.865Z,2.47
2023-11-10T03:05:08.999Z,4.00
2023-11-10T03:07:38.509Z,5.15
2023-11-10T03:10:10.312Z,4.20
2023-11-10T03:12:39.331Z,2.85
2023-11-10T03:15:08.437Z,3.30
2023-11-10T03:17:37.209Z,3.35
2023-11-10T03:20:08.114Z,5.13
2023-11-10T03:22:37.221Z,3.42
2023-11-10T03:25:05.737Z,3.83
2023-11-10T03:27:34.188Z,3.67
2023-11-10T03:30:02.355Z,3.97
2023-11-10T03:32:34.296Z,3.20
2023-11-10T03:35:02.826Z,3.70
2023-11-10T03:37:31.399Z,3.40
2023-11-10T03:39:59.572Z,4.95
2023-11-10T03:42:29.213Z,10.35
2023-11-10T03:44:57.769Z,3.88
2023-11-10T03:47:26.354Z,5.25
2023-11-10T03:49:54.507Z,4.68
2023-11-10T03:52:22.990Z,4.30
2023-11-10T03:54:51.175Z,3.30
2023-11-10T03:57:19.760Z,3.78
2023-11-10T03:59:48.019Z,4.25
2023-11-10T04:02:16.784Z,3.90
2023-11-10T04:04:45.210Z,4.38
2023-11-10T04:07:14.158Z,5.10
2023-11-10T04:09:42.578Z,4.07
2023-11-10T04:12:11.177Z,5.00
2023-11-10T04:14:41.966Z,3.72
2023-11-10T04:17:10.940Z,3.90
2023-11-10T04:19:39.144Z,7.95
2023-11-10T04:22:08.800Z,6.82
2023-11-10T04:24:37.010Z,6.13
2023-11-10T04:27:06.055Z,5.05
2023-11-10T04:29:34.180Z,9.82
2023-11-10T04:32:02.686Z,9.52
2023-11-10T04:34:30.868Z,5.93
2023-11-10T04:36:59.612Z,5.25
2023-11-10T04:39:27.771Z,11.50
2023-11-10T04:41:56.278Z,4.97
2023-11-10T04:44:24.768Z,11.25
2023-11-10T04:46:53.352Z,6.25
2023-11-10T04:49:21.501Z,4.80
2023-11-10T04:51:50.809Z,8.98
2023-11-10T04:54:19.145Z,6.25
2023-11-10T04:56:47.786Z,140.40
2023-11-10T04:59:16.168Z,9.65
2023-11-10T05:01:45.092Z,24.48
2023-11-10T05:04:14.152Z,12.40
2023-11-10T05:06:43.046Z,9.43
2023-11-10T05:09:11.461Z,7.97
2023-11-10T05:11:40.069Z,9.68
2023-11-10T05:14:10.102Z,9.68
2023-11-10T05:16:38.943Z,7.38
2023-11-10T05:19:07.081Z,5.93
2023-11-10T05:21:35.696Z,10.82
2023-11-10T05:24:04.263Z,8.05
2023-11-10T05:26:32.728Z,7.35
2023-11-10T05:29:00.817Z,8.90
2023-11-10T05:31:29.446Z,9.15
2023-11-10T05:33:58.483Z,7.85
2023-11-10T05:36:27.019Z,6.93
2023-11-10T05:38:55.204Z,9.05
2023-11-10T05:41:25.219Z,9.13
2023-11-10T05:43:53.243Z,7.32
2023-11-10T05:46:23.457Z,10.68
2023-11-10T05:48:51.565Z,8.55
2023-11-10T05:51:20.411Z,8.77
2023-11-10T05:53:48.556Z,10.05
2023-11-10T05:56:16.998Z,9.45
2023-11-10T05:58:45.173Z,7.85
2023-11-10T06:01:14.275Z,10.70
2023-11-10T06:03:43.363Z,9.20
2023-11-10T06:06:12.013Z,11.40
2023-11-10T06:08:40.402Z,8.27
2023-11-10T06:11:10.566Z,8.95
2023-11-10T06:13:38.669Z,17.27
2023-11-10T06:16:09.430Z,6.75
2023-11-10T06:18:37.712Z,10.55
2023-11-10T06:21:06.315Z,7.03
2023-11-10T07:16:13.970Z,7.43
2023-11-10T07:18:42.136Z,4.72
2023-11-10T07:21:12.273Z,5.95
2023-11-10T07:23:40.312Z,5.25
2023-11-10T07:26:08.712Z,7.05
2023-11-10T07:28:36.803Z,8.60
2023-11-10T07:31:05.710Z,5.60
2023-11-10T07:33:33.915Z,10.82
2023-11-10T07:36:02.878Z,8.07
2023-11-10T07:38:31.288Z,8.57
2023-11-10T07:41:00.168Z,6.40
2023-11-10T07:43:28.138Z,5.88
2023-11-10T07:45:56.653Z,3.28
2023-11-10T07:48:24.881Z,6.93
2023-11-10T07:50:53.299Z,2.92
2023-11-10T07:53:22.258Z,4.28
2023-11-10T07:55:51.677Z,4.50
2023-11-10T07:58:19.927Z,2.80
2023-11-10T08:00:49.186Z,11.10
2023-11-10T08:03:19.543Z,8.48
2023-11-10T08:05:48.229Z,8.27
2023-11-10T08:08:16.863Z,6.85
2023-11-10T08:10:45.367Z,6.22
2023-11-10T08:13:13.441Z,5.95
2023-11-10T08:15:45.198Z,3.50
2023-11-10T08:18:13.513Z,5.78
2023-11-10T08:20:41.931Z,4.30
2023-11-10T08:23:12.296Z,4.47
2023-11-10T08:25:41.395Z,6.88
2023-11-10T08:28:09.426Z,6.95
2023-11-10T08:30:37.946Z,5.80
2023-11-10T08:33:06.222Z,7.78
2023-11-10T08:35:34.656Z,9.00
2023-11-10T08:38:04.157Z,8.38
2023-11-10T08:40:35.451Z,21.13
2023-11-10T08:43:03.976Z,7.65
2023-11-10T08:45:32.840Z,10.98
2023-11-10T08:48:01.089Z,12.05
2023-11-10T08:50:29.317Z,6.10
2023-11-10T08:52:58.175Z,5.40
2023-11-10T08:55:26.344Z,7.43
2023-11-10T08:57:54.882Z,7.47
2023-11-10T09:00:23.076Z,7.57
2023-11-10T09:02:54.391Z,8.20
2023-11-10T09:05:23.930Z,6.90
2023-11-10T09:07:52.571Z,6.88
2023-11-10T09:10:20.797Z,11.57
2023-11-10T09:12:50.609Z,7.05
2023-11-10T09:15:19.610Z,12.32
2023-11-10T09:17:50.629Z,7.95
2023-11-10T09:20:18.843Z,7.97
2023-11-10T09:22:48.700Z,11.38
2023-11-10T09:25:21.717Z,6.07
2023-11-10T09:27:50.657Z,8.95
2023-11-10T09:30:18.702Z,14.27
2023-11-10T09:32:47.577Z,6.07
2023-11-10T09:35:18.466Z,5.60
2023-11-10T09:37:49.655Z,7.53
2023-11-10T09:40:17.805Z,8.13
2023-11-10T09:42:46.483Z,9.20
2023-11-10T09:45:17.798Z,9.43
2023-11-10T09:47:47.769Z,7.60
2023-11-10T09:50:19.670Z,9.73
2023-11-10T09:52:50.776Z,11.18
2023-11-10T09:55:19.825Z,9.93
2023-11-10T09:57:52.507Z,13.63
2023-11-10T10:00:22.570Z,13.82
2023-11-10T10:02:51.517Z,16.85
2023-11-10T10:05:19.920Z,13.55
2023-11-10T10:07:48.892Z,11.27
2023-11-10T10:10:16.942Z,14.75
2023-11-10T10:12:45.408Z,13.82
2023-11-10T10:15:13.743Z,14.48
2023-11-10T10:17:42.490Z,19.77
2023-11-10T10:20:15.769Z,13.32
2023-11-10T10:22:51.188Z,13.70
2023-11-10T10:25:22.345Z,15.95
2023-11-10T10:27:53.758Z,23.10
2023-11-10T10:30:22.047Z,14.32
2023-11-10T10:32:52.076Z,15.13
2023-11-10T10:35:20.249Z,12.30
2023-11-10T10:37:54.831Z,18.73
2023-11-10T10:40:24.465Z,14.05
2023-11-10T10:42:55.682Z,13.32
2023-11-10T10:45:30.480Z,16.15
2023-11-10T10:48:02.218Z,13.70
2023-11-10T10:50:32.650Z,13.57
2023-11-10T10:53:01.909Z,12.45
2023-11-10T10:55:33.263Z,12.93
2023-11-10T10:58:01.805Z,12.05
2023-11-10T11:00:32.580Z,17.20
2023-11-10T11:03:27.362Z,11.18
2023-11-10T11:06:33.302Z,9.38
2023-11-10T11:09:25.292Z,13.77
2023-11-10T11:12:16.827Z,11.43
2023-11-10T11:14:56.365Z,21.80
2023-11-10T11:17:48.510Z,19.10
2023-11-10T11:20:18.258Z,12.73
2023-11-10T11:22:47.455Z,14.20
2023-11-10T11:25:15.967Z,16.42
2023-11-10T11:27:44.182Z,15.30
2023-11-10T11:30:14.213Z,13.68
2023-11-10T11:32:44.362Z,13.90
2023-11-10T11:35:16.862Z,17.60
2023-11-10T11:37:46.751Z,14.02
2023-11-10T11:40:15.824Z,8.45
2023-11-10T11:42:44.494Z,8.15
2023-11-10T11:45:15.034Z,8.75
2023-11-10T11:47:44.530Z,5.38
2023-11-10T11:50:13.270Z,5.75
2023-11-10T11:52:42.450Z,18.75
2023-11-10T11:55:11.346Z,10.27
2023-11-10T11:57:39.762Z,11.95
2023-11-10T12:00:10.547Z,10.95
2023-11-10T12:02:41.213Z,11.23
2023-11-10T12:05:15.186Z,8.05
2023-11-10T12:10:15.679Z,9.45
2023-11-10T12:12:46.476Z,10.00
2023-11-10T12:15:18.290Z,15.63
2023-11-10T12:17:46.629Z,14.43
2023-11-10T12:20:14.989Z,17.40
2023-11-10T12:22:55.788Z,11.48
2023-11-10T12:25:28.123Z,13.25
2023-11-10T12:27:56.729Z,14.95
2023-11-10T12:30:25.511Z,10.93
2023-11-10T12:32:54.278Z,12.48
2023-11-10T12:35:23.629Z,10.45
2023-11-10T12:37:55.520Z,12.50
2023-11-10T12:40:26.151Z,15.63
2023-11-10T12:42:55.239Z,15.73
2023-11-10T12:45:26.117Z,17.40
2023-11-10T12:48:00.539Z,16.42
2023-11-10T12:50:34.507Z,15.63
2023-11-10T12:53:05.401Z,22.55
2023-11-10T12:55:34.147Z,21.73
2023-11-10T12:58:02.412Z,15.32
2023-11-10T13:00:31.045Z,24.70
2023-11-10T13:02:59.258Z,23.05
2023-11-10T13:05:27.908Z,21.75
2023-11-10T13:07:57.329Z,17.00
2023-11-10T13:10:25.680Z,18.35
2023-11-10T13:12:54.849Z,19.40
2023-11-10T13:15:23.402Z,19.83
2023-11-10T13:17:51.535Z,22.95
2023-11-10T13:20:23.239Z,23.83
2023-11-10T13:22:53.629Z,20.90
2023-11-10T13:25:22.219Z,23.90
2023-11-10T13:27:50.765Z,24.23
2023-11-10T13:30:20.368Z,20.80
2023-11-10T13:32:54.371Z,26.77
2023-11-10T13:35:23.711Z,20.95
2023-11-10T13:37:52.061Z,19.45
2023-11-10T13:40:20.585Z,18.88
2023-11-10T13:42:48.761Z,19.13
2023-11-10T13:45:17.159Z,19.90
2023-11-10T13:47:46.161Z,19.33
2023-11-10T13:50:14.656Z,20.63
2023-11-10T13:52:44.077Z,18.67
2023-11-10T13:55:13.966Z,30.05
2023-11-10T13:57:42.697Z,17.58
2023-11-10T14:00:14.408Z,22.63
2023-11-10T14:02:43.681Z,16.65
2023-11-10T14:05:13.239Z,19.45
2023-11-10T14:07:41.597Z,17.55
2023-11-10T14:10:10.880Z,21.40
2023-11-10T14:12:42.568Z,19.70
2023-11-10T14:15:16.005Z,20.67
2023-11-10T14:17:44.117Z,19.23
2023-11-10T14:20:12.706Z,16.90
2023-11-10T14:22:44.042Z,16.17
2023-11-10T14:25:13.627Z,16.08
2023-11-10T14:27:41.829Z,17.30
2023-11-10T14:30:11.395Z,24.42
2023-11-10T14:32:39.626Z,17.95
2023-11-10T14:35:11.772Z,18.35
2023-11-10T14:37:43.563Z,18.17
2023-11-10T14:40:20.441Z,20.40
2023-11-10T14:42:51.487Z,15.40
2023-11-10T14:45:23.609Z,19.00
2023-11-10T14:47:53.000Z,20.08
2023-11-10T14:50:38.593Z,17.30
2023-11-10T14:53:09.931Z,23.55
2023-11-10T14:55:40.316Z,23.35
2023-11-10T14:58:08.422Z,21.65
2023-11-10T15:00:40.834Z,19.65
2023-11-10T15:03:11.822Z,24.13
2023-11-10T15:05:40.629Z,20.65
2023-11-10T15:08:10.014Z,19.38
2023-11-10T15:10:39.432Z,22.30
2023-11-10T15:13:12.887Z,22.83
2023-11-10T15:18:21.402Z,17.70
2023-11-10T15:20:50.437Z,22.17
2023-11-10T15:23:21.093Z,20.50
2023-11-10T15:25:51.618Z,18.75
2023-11-10T15:28:19.948Z,23.17
2023-11-10T15:30:50.489Z,25.48
2023-11-10T15:33:19.398Z,22.25
2023-11-10T15:35:48.412Z,26.30
2023-11-10T15:38:18.284Z,19.10
2023-11-10T15:40:51.399Z,19.70
2023-11-10T15:43:20.297Z,20.27
2023-11-10T15:45:49.953Z,25.38
2023-11-10T15:48:18.620Z,31.75
2023-11-10T15:50:47.826Z,20.63
2023-11-10T15:53:15.965Z,18.77
2023-11-10T15:55:44.445Z,19.92
2023-11-10T15:58:12.606Z,17.52
2023-11-10T16:00:42.217Z,24.08
2023-11-10T16:03:10.699Z,17.33
2023-11-10T16:05:42.273Z,20.38
2023-11-10T16:08:11.891Z,26.75
2023-11-10T16:10:40.367Z,32.67
2023-11-10T16:13:08.413Z,22.88
2023-11-10T16:15:37.417Z,46.78
2023-11-10T16:18:06.735Z,25.15
2023-11-10T16:20:35.192Z,20.23
2023-11-10T16:23:04.455Z,38.95
2023-11-10T16:25:33.626Z,20.98
2023-11-10T16:28:01.798Z,23.65
2023-11-10T16:30:30.292Z,24.23
2023-11-10T16:33:00.362Z,24.70
2023-11-10T16:35:29.018Z,27.48
2023-11-10T16:37:57.253Z,27.13
2023-11-10T16:40:25.631Z,30.98
2023-11-10T16:42:53.801Z,23.17
2023-11-10T16:45:22.296Z,24.58
2023-11-10T16:47:50.607Z,22.63
2023-11-10T16:50:19.128Z,17.45
2023-11-10T16:52:47.132Z,20.77
2023-11-10T16:55:15.717Z,22.88
2023-11-10T16:57:43.973Z,42.90
2023-11-10T17:00:15.776Z,49.63
2023-11-10T17:02:46.314Z,35.15
2023-11-10T17:05:21.088Z,26.13
2023-11-10T17:07:50.724Z,20.73
2023-11-10T17:10:19.289Z,21.17
2023-11-10T17:12:48.030Z,18.25
2023-11-10T17:15:16.763Z,15.55
2023-11-10T17:17:46.730Z,31.55
2023-11-10T17:20:15.364Z,18.50
2023-11-10T17:22:43.559Z,21.02
2023-11-10T17:25:12.104Z,22.85
2023-11-10T17:27:40.489Z,27.88
2023-11-10T17:30:09.572Z,22.25
2023-11-10T17:32:37.928Z,22.73
2023-11-10T17:35:06.951Z,22.38
2023-11-10T17:37:35.228Z,18.92
2023-11-10T17:40:05.920Z,22.25
2023-11-10T17:42:35.409Z,20.98
2023-11-10T17:45:04.381Z,19.77
2023-11-10T17:47:39.196Z,19.70
2023-11-10T17:50:10.052Z,15.95
2023-11-10T17:52:38.315Z,17.60
2023-11-10T17:55:09.673Z,20.95
2023-11-10T17:57:37.955Z,20.30
2023-11-10T18:00:10.503Z,20.48
2023-11-10T18:02:41.900Z,18.67
2023-11-10T18:05:12.286Z,26.80
2023-11-10T18:07:41.432Z,21.17
2023-11-10T18:10:10.522Z,21.20
2023-11-10T18:12:38.703Z,19.25
2023-11-10T18:15:08.238Z,18.17
2023-11-10T18:17:37.126Z,21.25
2023-11-10T18:20:07.866Z,18.40
2023-11-10T18:22:36.095Z,18.02
2023-11-10T18:25:05.430Z,17.63
2023-11-10T18:27:34.190Z,20.23
2023-11-10T18:30:02.698Z,17.25
2023-11-10T18:32:30.872Z,26.40
2023-11-10T18:34:59.400Z,18.90
2023-11-10T18:37:27.869Z,21.98
2023-11-10T18:39:57.506Z,19.73
2023-11-10T18:42:26.823Z,18.45
2023-11-10T18:44:55.316Z,23.10
2023-11-10T18:47:23.442Z,18.70
2023-11-10T18:49:51.885Z,25.88
2023-11-10T18:52:20.093Z,19.73
2023-11-10T18:54:48.682Z,22.25
2023-11-10T18:57:16.792Z,21.33
2023-11-10T18:59:45.191Z,20.92
2023-11-10T19:02:13.272Z,18.63
2023-11-10T19:04:43.938Z,21.88
2023-11-10T19:07:12.860Z,22.02
2023-11-10T19:09:42.418Z,23.58
2023-11-10T19:12:10.559Z,25.17
2023-11-10T19:14:39.292Z,25.63
2023-11-10T19:17:08.386Z,20.52
2023-11-10T19:19:39.342Z,30.42
2023-11-10T19:22:08.851Z,22.38
2023-11-10T19:24:37.454Z,18.42
2023-11-10T19:27:05.897Z,21.05
2023-11-10T19:29:34.485Z,24.38
2023-11-10T19:32:02.600Z,24.42
2023-11-10T19:34:31.218Z,20.05
2023-11-10T19:36:59.354Z,18.67
2023-11-10T19:39:27.883Z,22.08
2023-11-10T19:41:56.378Z,24.15
2023-11-10T19:44:24.531Z,22.50
2023-11-10T19:46:53.094Z,24.50
2023-11-10T19:49:22.102Z,20.95
2023-11-10T19:56:53.661Z,23.38
2023-11-10T19:59:24.391Z,19.58
2023-11-10T20:01:54.064Z,21.05
2023-11-10T20:04:22.130Z,22.90
2023-11-10T20:06:51.702Z,22.75
2023-11-10T20:09:19.895Z,23.67
2023-11-10T20:11:48.491Z,24.55
2023-11-10T20:14:17.952Z,21.45
2023-11-10T20:16:48.044Z,18.75
2023-11-10T20:19:16.248Z,23.85
2023-11-10T20:21:44.915Z,25.63
2023-11-10T20:24:13.372Z,16.23
2023-11-10T20:26:42.420Z,30.10
2023-11-10T20:29:10.597Z,19.63
2023-11-10T20:31:39.229Z,21.25
2023-11-10T20:34:07.311Z,22.15
2023-11-10T20:36:36.033Z,18.88
2023-11-10T20:39:05.112Z,19.17
2023-11-10T20:41:33.471Z,22.83
2023-11-10T20:44:01.622Z,23.38
2023-11-10T20:46:30.232Z,19.83
2023-11-10T20:48:59.482Z,24.52
2023-11-10T20:51:28.157Z,29.42
2023-11-10T20:53:56.255Z,21.88
2023-11-10T20:56:26.498Z,21.42
2023-11-10T20:58:54.624Z,22.80
2023-11-10T21:01:24.157Z,22.02
2023-11-10T21:03:52.470Z,29.25
2023-11-10T21:06:23.708Z,21.13
2023-11-10T21:08:51.867Z,21.48
2023-11-10T21:11:20.519Z,23.75
2023-11-10T21:13:48.709Z,24.40
2023-11-10T21:16:17.175Z,21.95
2023-11-10T21:18:45.493Z,21.52
2023-11-10T21:21:15.232Z,22.90
2023-11-10T21:23:43.484Z,26.65
2023-11-10T21:26:12.074Z,24.25
2023-11-10T21:28:40.514Z,25.15
2023-11-10T21:31:08.939Z,20.35
2023-11-10T21:33:38.513Z,21.55
2023-11-10T21:36:07.481Z,24.38
2023-11-10T21:38:38.682Z,19.83
2023-11-10T21:41:07.170Z,23.90
2023-11-10T21:43:35.913Z,23.15
2023-11-10T21:46:04.483Z,24.92
2023-11-10T21:48:34.449Z,27.02
2023-11-10T21:51:03.974Z,25.85
2023-11-10T21:53:32.032Z,24.17
2023-11-10T21:56:00.513Z,25.35
2023-11-10T21:58:28.627Z,23.50
2023-11-10T22:00:58.324Z,21.55
2023-11-10T22:03:26.680Z,24.10
2023-11-10T22:05:55.279Z,31.25
2023-11-10T22:08:23.360Z,22.10
2023-11-10T22:10:51.754Z,23.02
2023-11-10T22:13:19.840Z,22.27
2023-11-10T22:15:48.227Z,23.35
2023-11-10T22:18:16.854Z,21.90
2023-11-10T22:20:45.431Z,22.33
2023-11-10T22:23:13.646Z,37.33
2023-11-10T22:25:42.054Z,25.73
2023-11-10T22:28:10.146Z,25.58
2023-11-10T22:30:38.696Z,26.38
2023-11-10T22:33:06.871Z,25.55
2023-11-10T22:35:35.631Z,25.63
2023-11-10T22:38:03.794Z,25.77
2023-11-10T22:40:32.198Z,26.10
2023-11-10T22:43:00.382Z,25.05
2023-11-10T22:45:29.689Z,26.77
2023-11-10T22:47:58.672Z,27.25
2023-11-10T22:50:27.184Z,32.45
2023-11-10T22:52:55.379Z,28.13
2023-11-10T22:55:25.230Z,26.35
2023-11-10T22:57:53.315Z,24.67
2023-11-10T23:00:28.431Z,30.27
2023-11-10T23:02:57.087Z,28.17
2023-11-10T23:05:26.072Z,31.15
2023-11-10T23:07:56.128Z,28.25
2023-11-10T23:10:29.472Z,35.92
2023-11-10T23:13:00.292Z,29.88
2023-11-10T23:15:30.917Z,29.23
2023-11-10T23:18:00.110Z,28.63
2023-11-10T23:20:34.714Z,28.02
2023-11-10T23:23:05.222Z,30.58
2023-11-10T23:25:38.929Z,30.42
2023-11-10T23:28:07.390Z,32.13
2023-11-10T23:30:36.053Z,30.48
2023-11-10T23:33:04.662Z,31.92
2023-11-10T23:35:35.106Z,29.42
2023-11-10T23:38:03.501Z,37.85
2023-11-10T23:40:34.046Z,31.92
2023-11-10T23:43:02.138Z,33.72
2023-11-10T23:45:30.644Z,32.28
2023-11-10T23:47:58.921Z,41.65
2023-11-10T23:50:28.599Z,34.92
2023-11-10T23:52:56.836Z,33.17
2023-11-10T23:55:25.296Z,36.30
2023-11-10T23:57:53.368Z,31.90
